Time;durP1;ratioP1;P1;durP2;ratioP2;P2;SDS_P1;SDS_P2;PMS_P1;PMS_P2;Temp;Humidity;BMP_temperature;BMP_pressure;BME280_temperature;BME280_humidity;BME280_pressure;Samples;Min_cycle;Max_cycle;Signal;HPM_P1;HPM_P2
2022/05/26 00:02:26;;;;;;;0.60;0.30;;;16.60;1.00;;;;;;5097091;28;20540;-56
2022/05/26 00:04:53;;;;;;;0.40;0.30;;;16.60;1.00;;;;;;5097485;28;20568;-55
2022/05/26 00:07:21;;;;;;;0.70;0.20;;;16.80;1.00;;;;;;5117265;28;20571;-55
2022/05/26 00:09:48;;;;;;;0.30;0.20;;;16.90;1.00;;;;;;5117909;28;20527;-57
2022/05/26 00:12:16;;;;;;;0.30;0.20;;;16.90;1.00;;;;;;5117564;28;20491;-56
2022/05/26 00:14:43;;;;;;;0.40;0.20;;;17.10;1.00;;;;;;5111848;28;20488;-56
2022/05/26 00:17:10;;;;;;;1.23;0.23;;;17.00;1.00;;;;;;5097577;28;20867;-55
2022/05/26 00:19:37;;;;;;;0.40;0.20;;;17.00;1.00;;;;;;5096689;28;20528;-55
2022/05/26 00:22:04;;;;;;;1.30;0.30;;;17.00;1.00;;;;;;5096152;28;20551;-55
2022/05/26 00:24:32;;;;;;;0.40;0.20;;;17.00;1.00;;;;;;5107720;28;20935;-56
2022/05/26 00:26:59;;;;;;;0.50;0.20;;;17.10;1.00;;;;;;5113649;28;20489;-56
2022/05/26 00:29:26;;;;;;;0.60;0.20;;;17.00;1.00;;;;;;5116917;28;20569;-55
2022/05/26 00:31:53;;;;;;;0.67;0.20;;;17.00;1.00;;;;;;5115626;28;20436;-56
2022/05/26 00:34:20;;;;;;;1.03;0.10;;;17.20;1.00;;;;;;5115307;28;20887;-56
2022/05/26 00:36:47;;;;;;;0.30;0.20;;;17.20;1.00;;;;;;5114974;28;20544;-56
2022/05/26 00:39:17;;;;;;;0.70;0.20;;;17.10;1.00;;;;;;5115678;28;20523;-54
2022/05/26 00:41:47;;;;;;;0.30;0.10;;;17.10;1.00;;;;;;5115090;28;20440;-56
2022/05/26 00:44:14;;;;;;;0.30;0.20;;;17.10;1.00;;;;;;5115775;28;20960;-55
2022/05/26 00:46:47;;;;;;;0.40;0.23;;;17.10;1.00;;;;;;5101797;28;20865;-56
2022/05/26 00:49:21;;;;;;;0.30;0.10;;;17.00;1.00;;;;;;5096561;28;20532;-55
2022/05/26 00:51:48;;;;;;;0.30;0.20;;;17.00;1.00;;;;;;5096268;28;20536;-55
2022/05/26 00:54:19;;;;;;;0.30;0.20;;;17.00;1.00;;;;;;5097227;28;20575;-57
2022/05/26 00:56:53;;;;;;;0.40;0.20;;;17.10;1.00;;;;;;5116103;28;20531;-54
2022/05/26 00:59:28;;;;;;;0.30;0.20;;;17.10;1.00;;;;;;5116239;28;20538;-57
2022/05/26 01:01:58;;;;;;;0.40;0.20;;;17.00;1.00;;;;;;5116239;28;20903;-55
2022/05/26 01:04:28;;;;;;;0.30;0.20;;;16.90;1.00;;;;;;5109809;28;20461;-57
2022/05/26 01:07:00;;;;;;;0.30;0.20;;;16.80;1.00;;;;;;5099013;28;20572;-57
2022/05/26 01:09:27;;;;;;;0.40;0.20;;;16.80;1.00;;;;;;5096213;28;20488;-53
2022/05/26 01:11:55;;;;;;;0.40;0.13;;;16.80;1.00;;;;;;5096383;28;20548;-57
2022/05/26 01:14:25;;;;;;;0.97;0.20;;;17.00;1.00;;;;;;5103025;28;20492;-57
2022/05/26 01:17:04;;;;;;;0.30;0.10;;;16.80;1.00;;;;;;5114083;28;20451;-57
2022/05/26 01:20:00;;;;;;;0.40;0.20;;;16.80;1.00;;;;;;5114279;28;20542;-56
2022/05/26 01:22:48;;;;;;;0.40;0.20;;;16.80;1.00;;;;;;5116044;28;20835;-55
2022/05/26 01:25:35;;;;;;;0.60;0.20;;;16.80;1.00;;;;;;5094598;28;20437;-55
2022/05/26 01:28:20;;;;;;;1.23;0.23;;;16.90;1.00;;;;;;5095619;28;20720;-54
2022/05/26 01:30:52;;;;;;;1.90;0.20;;;16.90;1.00;;;;;;5096050;28;20551;-56
2022/05/26 01:33:43;;;;;;;0.30;0.20;;;16.90;1.00;;;;;;5112123;28;21175;-55
2022/05/26 01:36:24;;;;;;;0.80;0.20;;;16.90;1.00;;;;;;5115022;28;20443;-54
2022/05/26 01:39:03;;;;;;;0.30;0.20;;;16.70;1.00;;;;;;5114061;28;20539;-57
2022/05/26 01:41:52;;;;;;;0.43;0.20;;;16.70;1.00;;;;;;5112723;28;20478;-55
2022/05/26 01:44:27;;;;;;;0.30;0.20;;;16.70;1.00;;;;;;5112332;28;20802;-55
2022/05/26 01:47:01;;;;;;;0.57;0.20;;;16.60;1.00;;;;;;5115019;28;21005;-55
2022/05/26 01:49:41;;;;;;;0.40;0.20;;;16.70;1.00;;;;;;5114572;28;20535;-55
2022/05/26 01:52:14;;;;;;;0.30;0.20;;;16.70;1.00;;;;;;5106189;28;20503;-53
2022/05/26 01:54:49;;;;;;;0.30;0.20;;;16.60;1.00;;;;;;5095407;28;20987;-57
2022/05/26 01:57:21;;;;;;;0.30;0.10;;;16.60;1.00;;;;;;5095834;28;20966;-55
2022/05/26 01:59:52;;;;;;;0.63;0.20;;;16.60;1.00;;;;;;5099694;28;20469;-55
2022/05/26 02:02:24;;;;;;;0.70;0.20;;;16.60;1.00;;;;;;5095072;28;20457;-57
2022/05/26 02:04:57;;;;;;;0.30;0.20;;;16.60;1.00;;;;;;5094507;28;20453;-56
2022/05/26 02:07:34;;;;;;;0.30;0.20;;;16.60;1.00;;;;;;5095198;28;20485;-53
2022/05/26 02:10:05;;;;;;;0.43;0.20;;;16.50;1.00;;;;;;5103415;28;20935;-55
2022/05/26 02:12:37;;;;;;;0.33;0.10;;;16.40;1.00;;;;;;5114002;28;20550;-53
2022/05/26 02:15:08;;;;;;;0.50;0.20;;;16.50;1.00;;;;;;5114423;28;20448;-54
2022/05/26 02:17:40;;;;;;;0.50;0.20;;;16.50;1.00;;;;;;5114006;28;20448;-57
2022/05/26 02:20:14;;;;;;;0.50;0.20;;;16.40;1.00;;;;;;5097671;28;20809;-57
2022/05/26 02:22:49;;;;;;;0.40;0.20;;;16.40;1.00;;;;;;5111115;28;20456;-56
2022/05/26 02:25:18;;;;;;;0.30;0.10;;;16.40;1.00;;;;;;5117964;28;20447;-56
2022/05/26 02:27:48;;;;;;;0.40;0.20;;;16.30;1.00;;;;;;5118197;28;20564;-57
2022/05/26 02:30:17;;;;;;;0.50;0.20;;;16.30;1.00;;;;;;5118631;28;20540;-53
2022/05/26 02:32:47;;;;;;;0.33;0.20;;;16.20;1.00;;;;;;5115616;28;20464;-55
2022/05/26 02:35:17;;;;;;;0.83;0.20;;;16.20;1.00;;;;;;5118763;28;20539;-53
2022/05/26 02:37:47;;;;;;;0.50;0.20;;;16.20;1.00;;;;;;5118606;28;20908;-57
2022/05/26 02:40:15;;;;;;;0.40;0.20;;;16.10;1.00;;;;;;5117372;28;20460;-55
2022/05/26 02:42:47;;;;;;;0.30;0.20;;;16.00;1.00;;;;;;5115452;28;20465;-52
2022/05/26 02:45:15;;;;;;;0.30;0.13;;;16.00;1.00;;;;;;5119271;28;20810;-53
2022/05/26 02:47:51;;;;;;;0.33;0.20;;;15.90;1.00;;;;;;5119016;28;20484;-56
2022/05/26 02:50:33;;;;;;;0.40;0.20;;;16.00;1.00;;;;;;5118277;28;20856;-54
2022/05/26 02:53:07;;;;;;;0.30;0.20;;;15.90;1.00;;;;;;5116295;28;20561;-53
2022/05/26 02:55:53;;;;;;;0.30;0.10;;;15.90;1.00;;;;;;5118211;28;20551;-55
2022/05/26 02:58:26;;;;;;;0.90;0.20;;;15.90;1.00;;;;;;5119043;28;20809;-54
2022/05/26 03:01:00;;;;;;;0.30;0.20;;;15.80;1.00;;;;;;5111382;28;20596;-55
2022/05/26 03:03:34;;;;;;;0.30;0.20;;;15.80;1.00;;;;;;5109495;28;20552;-56
2022/05/26 03:06:06;;;;;;;0.87;0.17;;;15.70;1.00;;;;;;5097949;28;20935;-55
2022/05/26 03:08:37;;;;;;;0.30;0.20;;;15.70;1.00;;;;;;5097582;28;20445;-54
2022/05/26 03:11:07;;;;;;;0.40;0.10;;;15.70;1.00;;;;;;5103453;28;20460;-56
2022/05/26 03:13:34;;;;;;;0.30;0.10;;;15.60;1.00;;;;;;5117593;28;20558;-55
2022/05/26 03:16:01;;;;;;;0.30;0.20;;;15.60;1.00;;;;;;5118088;28;20523;-56
2022/05/26 03:18:28;;;;;;;0.33;0.20;;;15.50;1.00;;;;;;5117473;28;20966;-54
2022/05/26 03:20:57;;;;;;;0.40;0.20;;;15.50;1.00;;;;;;5116543;27;20531;-56
2022/05/26 03:23:26;;;;;;;0.50;0.20;;;15.50;1.00;;;;;;5115378;28;20461;-56
2022/05/26 03:25:55;;;;;;;0.30;0.20;;;15.50;1.00;;;;;;5118556;28;20488;-54
2022/05/26 03:28:22;;;;;;;0.30;0.20;;;15.50;1.00;;;;;;5118318;28;20725;-56
2022/05/26 03:30:49;;;;;;;0.70;0.10;;;15.50;1.00;;;;;;5117175;28;20441;-51
2022/05/26 03:33:16;;;;;;;0.30;0.10;;;15.40;1.00;;;;;;5116741;28;20556;-55
2022/05/26 03:41:14;;;;;;;0.50;0.20;;;15.30;1.00;;;;;;5115424;28;20530;-54
2022/05/26 03:43:45;;;;;;;0.30;0.20;;;15.20;10.10;;;;;;5118487;28;20488;-50
2022/05/26 03:46:12;;;;;;;0.40;0.30;;;15.20;34.60;;;;;;5118244;28;20477;-52
2022/05/26 03:48:40;;;;;;;0.40;0.20;;;15.10;99.90;;;;;;5117732;28;20539;-51
2022/05/26 03:51:07;;;;;;;0.30;0.13;;;15.00;99.90;;;;;;5117061;28;20497;-55
2022/05/26 03:53:36;;;;;;;0.33;0.20;;;14.90;99.90;;;;;;5118075;28;20476;-56
2022/05/26 03:56:05;;;;;;;0.53;0.20;;;14.80;99.90;;;;;;5115386;28;20537;-54
2022/05/26 03:58:32;;;;;;;0.30;0.20;;;14.80;99.90;;;;;;5118146;28;20459;-54
2022/05/26 04:01:02;;;;;;;0.40;0.20;;;14.80;99.90;;;;;;5117744;28;20955;-55
2022/05/26 04:03:29;;;;;;;0.30;0.10;;;14.80;99.90;;;;;;5117955;28;20461;-57
2022/05/26 04:05:56;;;;;;;0.30;0.20;;;14.80;99.90;;;;;;5111895;28;20555;-57
2022/05/26 04:08:23;;;;;;;0.30;0.20;;;14.80;99.90;;;;;;5117625;28;20539;-56
2022/05/26 04:10:51;;;;;;;0.40;0.20;;;14.80;99.90;;;;;;5117379;28;20440;-57
2022/05/26 04:13:18;;;;;;;0.30;0.20;;;14.70;1.00;;;;;;5116084;28;20551;-57
2022/05/26 04:15:45;;;;;;;0.30;0.20;;;14.70;1.00;;;;;;5115953;28;20518;-56
2022/05/26 04:18:13;;;;;;;0.30;0.20;;;14.70;1.00;;;;;;5115769;28;20527;-57
2022/05/26 04:20:40;;;;;;;0.33;0.20;;;14.70;1.00;;;;;;5111442;28;20503;-56
2022/05/26 04:23:07;;;;;;;0.37;0.20;;;14.70;1.00;;;;;;5116769;28;20514;-56
2022/05/26 04:25:34;;;;;;;2.60;0.30;;;14.70;1.00;;;;;;5115651;28;20455;-53
2022/05/26 04:28:02;;;;;;;0.40;0.20;;;14.70;1.00;;;;;;5116075;28;21166;-57
2022/05/26 04:30:29;;;;;;;0.50;0.30;;;14.70;1.00;;;;;;5098066;28;20560;-58
2022/05/26 04:32:57;;;;;;;0.40;0.20;;;14.70;1.00;;;;;;5096268;28;20511;-54
2022/05/26 04:35:24;;;;;;;0.40;0.20;;;14.70;1.00;;;;;;5096279;28;20465;-56
2022/05/26 04:37:51;;;;;;;0.40;0.20;;;14.70;1.00;;;;;;5096863;28;23156;-56
2022/05/26 04:40:18;;;;;;;0.40;0.20;;;14.90;1.00;;;;;;5104717;28;20559;-54
2022/05/26 04:42:45;;;;;;;1.13;0.20;;;15.00;1.00;;;;;;5103974;28;20540;-57
2022/05/26 04:45:14;;;;;;;0.40;0.20;;;15.10;1.00;;;;;;5096302;28;20540;-56
2022/05/26 04:47:42;;;;;;;0.43;0.20;;;15.10;1.00;;;;;;5096105;28;20513;-55
2022/05/26 04:50:10;;;;;;;0.47;0.20;;;15.20;99.90;;;;;;5115910;28;20531;-56
2022/05/26 04:52:37;;;;;;;0.30;0.20;;;15.20;99.90;;;;;;5116739;28;20969;-56
2022/05/26 04:55:05;;;;;;;1.00;0.20;;;15.20;99.90;;;;;;5116472;28;20923;-55
2022/05/26 04:57:32;;;;;;;2.67;0.20;;;15.20;1.00;;;;;;5114550;28;20849;-56
2022/05/26 04:59:59;;;;;;;0.70;0.20;;;15.20;1.00;;;;;;5115604;28;20539;-54
2022/05/26 05:02:27;;;;;;;0.30;0.13;;;15.30;1.00;;;;;;5115776;28;20547;-56
2022/05/26 05:04:54;;;;;;;0.40;0.20;;;15.20;1.00;;;;;;5115828;28;20535;-54
2022/05/26 05:07:21;;;;;;;0.40;0.20;;;15.20;1.00;;;;;;5111539;28;20491;-57
2022/05/26 05:09:49;;;;;;;0.53;0.20;;;15.20;1.00;;;;;;5115423;28;20539;-54
2022/05/26 05:12:18;;;;;;;0.50;0.20;;;15.20;1.00;;;;;;5116237;28;20543;-54
2022/05/26 05:14:49;;;;;;;0.47;0.20;;;15.20;1.00;;;;;;5115062;28;20531;-55
2022/05/26 05:17:17;;;;;;;0.40;0.20;;;15.20;1.00;;;;;;5105567;28;20468;-53
2022/05/26 05:19:46;;;;;;;0.37;0.20;;;15.30;1.00;;;;;;5097645;28;20472;-56
2022/05/26 05:22:19;;;;;;;0.67;0.20;;;15.30;1.00;;;;;;5096060;28;20461;-56
2022/05/26 05:24:51;;;;;;;1.10;0.20;;;15.30;1.00;;;;;;5095288;28;20560;-56
2022/05/26 05:27:22;;;;;;;0.33;0.20;;;15.40;1.00;;;;;;5111329;28;20484;-56
2022/05/26 05:29:51;;;;;;;0.37;0.23;;;15.40;1.00;;;;;;5115201;28;20832;-56
2022/05/26 05:32:21;;;;;;;0.30;0.20;;;15.40;1.00;;;;;;5114921;28;20557;-56
2022/05/26 05:34:53;;;;;;;0.70;0.20;;;15.40;1.00;;;;;;5114359;28;20464;-55
2022/05/26 05:37:20;;;;;;;0.50;0.20;;;15.50;1.00;;;;;;5114642;28;20532;-54
2022/05/26 05:39:47;;;;;;;0.40;0.20;;;15.50;99.90;;;;;;5112888;28;20480;-54
2022/05/26 05:42:14;;;;;;;0.40;0.10;;;15.70;99.90;;;;;;5114042;28;20448;-55
2022/05/26 05:44:41;;;;;;;0.40;0.20;;;15.80;99.90;;;;;;5109905;28;20460;-55
2022/05/26 05:47:08;;;;;;;0.30;0.20;;;15.90;99.90;;;;;;5093782;28;20525;-56
2022/05/26 05:49:35;;;;;;;2.00;0.20;;;16.00;1.00;;;;;;5095351;28;20506;-55
2022/05/26 05:52:11;;;;;;;0.30;0.20;;;16.00;1.00;;;;;;5096101;28;20452;-56
2022/05/26 05:54:38;;;;;;;0.50;0.20;;;16.10;1.00;;;;;;5116269;28;22120;-57
2022/05/26 05:57:06;;;;;;;0.40;0.20;;;16.30;1.00;;;;;;5119240;28;20510;-55
2022/05/26 05:59:34;;;;;;;0.30;0.20;;;16.40;1.00;;;;;;5119565;28;20444;-53
2022/05/26 06:02:01;;;;;;;0.37;0.20;;;16.60;1.00;;;;;;5111476;28;21005;-56
2022/05/26 06:04:27;;;;;;;0.40;0.10;;;16.80;1.00;;;;;;5098822;28;20476;-56
2022/05/26 06:06:54;;;;;;;0.30;0.20;;;17.00;1.00;;;;;;5099126;28;20564;-57
2022/05/26 06:09:23;;;;;;;0.40;0.20;;;17.00;1.00;;;;;;5099167;28;20540;-57
2022/05/26 06:11:50;;;;;;;0.30;0.20;;;16.90;1.00;;;;;;5098401;28;20457;-57
2022/05/26 06:14:17;;;;;;;0.30;0.10;;;16.90;1.00;;;;;;5099605;28;20469;-56
2022/05/26 06:16:46;;;;;;;0.87;0.20;;;16.90;1.00;;;;;;5098853;28;20532;-57
2022/05/26 06:19:13;;;;;;;0.33;0.20;;;17.00;1.00;;;;;;5099011;28;20452;-56
2022/05/26 06:21:40;;;;;;;0.33;0.20;;;16.90;1.00;;;;;;5115121;28;20467;-57
2022/05/26 06:24:09;;;;;;;0.40;0.20;;;16.90;1.00;;;;;;5118668;28;20551;-55
2022/05/26 06:26:37;;;;;;;0.70;0.70;;;17.00;1.00;;;;;;5118664;28;20497;-53
2022/05/26 06:37:19;;;;;;;0.80;0.20;;;17.30;1.00;;;;;;5116726;28;20481;-56
2022/05/26 06:39:46;;;;;;;0.40;0.20;;;17.50;1.00;;;;;;5117154;28;20853;-57
2022/05/26 06:42:14;;;;;;;0.40;0.20;;;17.50;1.00;;;;;;5118397;28;20452;-57
2022/05/26 06:44:43;;;;;;;0.30;0.20;;;17.50;1.00;;;;;;5118924;28;20747;-57
2022/05/26 06:47:13;;;;;;;0.40;0.20;;;17.60;1.00;;;;;;5119173;28;20578;-55
2022/05/26 06:49:41;;;;;;;0.40;0.17;;;17.40;1.00;;;;;;5118744;28;20487;-55
2022/05/26 06:52:12;;;;;;;0.40;0.20;;;17.40;1.00;;;;;;5118805;28;20856;-55
2022/05/26 06:54:42;;;;;;;0.30;0.20;;;17.50;1.00;;;;;;5118881;28;20618;-57
2022/05/26 06:57:10;;;;;;;0.30;0.20;;;17.50;1.00;;;;;;5117795;28;20451;-57
2022/05/26 06:59:42;;;;;;;0.30;0.20;;;17.50;1.00;;;;;;5117234;28;20849;-57
2022/05/26 07:02:11;;;;;;;0.30;0.13;;;17.60;1.00;;;;;;5117125;28;20876;-55
2022/05/26 07:04:39;;;;;;;0.40;0.20;;;17.80;1.00;;;;;;5117464;28;20445;-56
2022/05/26 07:07:06;;;;;;;0.30;0.20;;;18.00;1.00;;;;;;5115849;28;20476;-56
2022/05/26 07:09:33;;;;;;;0.30;0.20;;;18.10;1.00;;;;;;5117008;28;20539;-56
2022/05/26 07:12:00;;;;;;;1.70;0.20;;;18.10;1.00;;;;;;5118171;28;20460;-56
2022/05/26 07:14:28;;;;;;;0.40;0.20;;;18.00;1.00;;;;;;5118102;28;20535;-56
2022/05/26 07:16:56;;;;;;;0.43;0.20;;;18.10;1.00;;;;;;5118026;28;20794;-56
2022/05/26 07:19:23;;;;;;;0.40;0.20;;;18.00;1.00;;;;;;5117831;28;20544;-56
2022/05/26 07:21:50;;;;;;;2.80;0.20;;;18.20;1.00;;;;;;5118194;28;20447;-55
2022/05/26 07:24:18;;;;;;;0.57;0.20;;;18.10;1.00;;;;;;5118030;28;20456;-57
2022/05/26 07:26:45;;;;;;;0.30;0.10;;;18.20;1.00;;;;;;5117662;28;20448;-56
2022/05/26 07:29:13;;;;;;;2.63;0.50;;;18.40;1.00;;;;;;5117159;28;20480;-57
2022/05/26 07:31:40;;;;;;;0.40;0.20;;;18.60;1.00;;;;;;5116172;28;20471;-57
2022/05/26 07:34:08;;;;;;;0.40;0.20;;;18.90;1.00;;;;;;5115776;28;20528;-57
2022/05/26 07:42:08;;;;;;;0.60;0.20;;;18.90;1.00;;;;;;5117388;28;20509;-58
2022/05/26 07:44:38;;;;;;;0.40;0.20;;;19.10;1.00;;;;;;5117698;28;20924;-55
2022/05/26 07:47:06;;;;;;;0.30;0.20;;;19.00;1.00;;;;;;5117277;28;20495;-55
2022/05/26 07:49:36;;;;;;;0.40;0.20;;;19.20;1.00;;;;;;5117077;28;20923;-57
2022/05/26 07:52:04;;;;;;;0.50;0.20;;;19.50;1.00;;;;;;5117379;28;20488;-56
2022/05/26 07:54:31;;;;;;;0.63;0.20;;;19.30;1.00;;;;;;5130902;27;20526;-56
2022/05/26 07:56:58;;;;;;;0.50;0.20;;;19.20;1.00;;;;;;5136837;27;20456;-56
2022/05/26 07:59:25;;;;;;;0.97;0.20;;;19.50;1.00;;;;;;5137271;27;20479;-55
2022/05/26 08:01:52;;;;;;;0.30;0.10;;;19.80;1.00;;;;;;5135221;27;20527;-55
2022/05/26 08:04:20;;;;;;;0.37;0.20;;;19.90;1.00;;;;;;5135282;27;20534;-56
2022/05/26 08:06:49;;;;;;;1.00;0.20;;;20.00;1.00;;;;;;5135382;27;20523;-57
2022/05/26 08:09:17;;;;;;;0.47;0.20;;;20.10;1.00;;;;;;5134752;27;20501;-57
2022/05/26 08:11:44;;;;;;;0.30;0.20;;;20.00;1.00;;;;;;5134434;27;20454;-56
2022/05/26 08:14:11;;;;;;;0.30;0.10;;;19.90;1.00;;;;;;5135123;27;20538;-57
2022/05/26 08:16:38;;;;;;;0.50;0.20;;;20.00;1.00;;;;;;5135699;27;20542;-56
2022/05/26 08:19:06;;;;;;;0.50;0.30;;;19.80;1.00;;;;;;5136098;27;20444;-57
2022/05/26 08:21:35;;;;;;;0.33;0.20;;;19.70;1.00;;;;;;5136755;27;20444;-56
2022/05/26 08:24:04;;;;;;;1.07;0.20;;;19.30;1.00;;;;;;5137068;27;20505;-55
2022/05/26 08:26:31;;;;;;;0.30;0.10;;;19.30;1.00;;;;;;5136485;27;20452;-56
2022/05/26 08:28:59;;;;;;;0.40;0.30;;;19.10;1.00;;;;;;5137118;27;21041;-57
2022/05/26 08:31:26;;;;;;;0.30;0.20;;;19.10;1.00;;;;;;5137032;27;20820;-57
2022/05/26 08:33:53;;;;;;;0.40;0.20;;;19.10;1.00;;;;;;5137519;27;20516;-57
2022/05/26 08:36:24;;;;;;;0.77;0.20;;;19.20;1.00;;;;;;5137524;27;20539;-57
2022/05/26 08:38:52;;;;;;;0.40;0.20;;;19.40;1.00;;;;;;5135615;27;20491;-57
2022/05/26 08:41:22;;;;;;;0.40;0.20;;;19.30;1.00;;;;;;5136036;27;20474;-58
2022/05/26 08:43:55;;;;;;;0.30;0.20;;;19.20;1.00;;;;;;5135036;27;20546;-56
2022/05/26 08:46:22;;;;;;;0.30;0.10;;;18.90;1.00;;;;;;5136305;27;20444;-57
2022/05/26 08:48:57;;;;;;;0.40;0.20;;;19.00;1.00;;;;;;5135821;27;21104;-57
2022/05/26 08:51:32;;;;;;;1.03;0.20;;;19.40;1.00;;;;;;5135335;27;20439;-57
2022/05/26 08:54:00;;;;;;;0.30;0.10;;;19.60;1.00;;;;;;5135289;27;20572;-56
2022/05/26 08:56:29;;;;;;;0.47;0.13;;;19.80;1.00;;;;;;5134237;27;20872;-57
2022/05/26 08:59:03;;;;;;;0.40;0.20;;;19.90;1.00;;;;;;5133980;27;20546;-55
2022/05/26 09:01:32;;;;;;;0.30;0.20;;;19.90;1.00;;;;;;5134108;27;20542;-57
2022/05/26 09:04:01;;;;;;;0.37;0.20;;;20.00;1.00;;;;;;5133371;27;20452;-56
2022/05/26 09:06:28;;;;;;;0.90;0.20;;;20.40;1.00;;;;;;5133866;27;21104;-57
2022/05/26 09:14:34;;;;;;;0.30;0.20;;;20.20;1.00;;;;;;5135223;27;20446;-57
2022/05/26 09:17:03;;;;;;;0.40;0.10;;;20.40;1.00;;;;;;5135889;27;20546;-58
2022/05/26 09:19:50;;;;;;;0.30;0.20;;;20.70;1.00;;;;;;5135515;27;20818;-57
2022/05/26 09:22:28;;;;;;;0.40;0.30;;;20.70;1.00;;;;;;5136036;28;20666;-56
2022/05/26 09:24:57;;;;;;;0.30;0.20;;;21.00;1.00;;;;;;5136030;28;20530;-57
2022/05/26 09:27:29;;;;;;;0.30;0.13;;;20.70;1.00;;;;;;5135785;27;20902;-57
2022/05/26 09:30:13;;;;;;;0.40;0.20;;;20.40;1.00;;;;;;5139549;27;20813;-57
2022/05/26 09:32:40;;;;;;;0.40;0.20;;;20.20;1.00;;;;;;5138860;27;20458;-58
2022/05/26 09:35:12;;;;;;;0.30;0.20;;;20.30;1.00;;;;;;5139339;27;20949;-54
2022/05/26 09:37:44;;;;;;;0.50;0.30;;;20.20;1.00;;;;;;5139846;27;20542;-58
2022/05/26 09:40:19;;;;;;;0.50;0.20;;;20.10;1.00;;;;;;5127995;27;20445;-58
2022/05/26 09:42:51;;;;;;;0.50;0.20;;;19.70;1.00;;;;;;5111303;28;20528;-58
2022/05/26 09:45:20;;;;;;;0.30;0.20;;;19.50;1.00;;;;;;5115072;28;20448;-55
2022/05/26 09:47:53;;;;;;;0.40;0.20;;;19.40;1.00;;;;;;5116766;28;20539;-58
2022/05/26 09:50:46;;;;;;;1.27;0.20;;;19.30;1.00;;;;;;5114601;28;20921;-58
2022/05/26 09:53:15;;;;;;;0.30;0.20;;;19.10;1.00;;;;;;5097967;28;20453;-57
2022/05/26 09:55:46;;;;;;;0.90;0.30;;;19.20;1.00;;;;;;5108631;28;20472;-56
2022/05/26 09:58:28;;;;;;;0.40;0.30;;;19.20;1.00;;;;;;5116990;28;20455;-57
2022/05/26 10:00:57;;;;;;;0.57;0.30;;;19.30;1.00;;;;;;5118086;28;20436;-57
2022/05/26 10:03:34;;;;;;;0.40;0.20;;;19.60;1.00;;;;;;5117919;28;20750;-56
2022/05/26 10:06:22;;;;;;;0.40;0.20;;;19.50;1.00;;;;;;5105313;28;20914;-57
2022/05/26 10:09:01;;;;;;;0.57;0.40;;;19.50;1.00;;;;;;5097357;28;20524;-58
2022/05/26 10:11:38;;;;;;;0.30;0.20;;;19.60;1.00;;;;;;5096661;28;20498;-57
2022/05/26 10:14:24;;;;;;;0.40;0.20;;;19.70;1.00;;;;;;5098430;28;20523;-56
2022/05/26 10:16:56;;;;;;;1.07;0.13;;;19.80;1.00;;;;;;5098403;28;20536;-57
2022/05/26 10:19:39;;;;;;;0.30;0.20;;;19.80;1.00;;;;;;5097917;28;20448;-56
2022/05/26 10:22:23;;;;;;;0.30;0.20;;;19.80;1.00;;;;;;5097623;28;20457;-58
2022/05/26 10:25:25;;;;;;;0.53;0.30;;;20.00;1.00;;;;;;5116265;28;20531;-57
2022/05/26 10:28:22;;;;;;;0.30;0.20;;;20.10;1.00;;;;;;5036101;28;20534;-58
2022/05/26 10:30:59;;;;;;;0.50;0.20;;;20.00;1.00;;;;;;5125050;27;20972;-57
2022/05/26 10:33:45;;;;;;;0.97;0.20;;;20.10;1.00;;;;;;5122838;27;20546;-57
2022/05/26 10:36:20;;;;;;;0.30;0.20;;;20.30;1.00;;;;;;5138885;27;20440;-56
2022/05/26 10:39:10;;;;;;;1.03;0.20;;;20.30;1.00;;;;;;5127743;27;20458;-57
2022/05/26 10:41:41;;;;;;;0.83;0.20;;;20.30;1.00;;;;;;5139030;27;20473;-56
2022/05/26 10:44:16;;;;;;;0.40;0.20;;;20.40;1.00;;;;;;5131018;27;20834;-56
2022/05/26 10:46:54;;;;;;;0.30;0.20;;;20.10;1.00;;;;;;5137412;27;20459;-58
2022/05/26 10:49:26;;;;;;;0.40;0.20;;;19.90;1.00;;;;;;5097230;28;20477;-56
2022/05/26 10:51:58;;;;;;;0.30;0.10;;;19.70;1.00;;;;;;5096864;28;20437;-55
2022/05/26 10:54:36;;;;;;;0.40;0.20;;;19.60;1.00;;;;;;5097662;28;20481;-53
2022/05/26 10:57:09;;;;;;;1.70;0.20;;;19.50;1.00;;;;;;5099177;28;20812;-54
2022/05/26 10:59:41;;;;;;;0.40;0.20;;;19.50;1.00;;;;;;5118459;28;20536;-57
2022/05/26 11:02:16;;;;;;;0.50;0.20;;;19.50;1.00;;;;;;5117640;28;20950;-58
2022/05/26 11:04:51;;;;;;;0.40;0.20;;;19.30;1.00;;;;;;5116627;28;20792;-55
2022/05/26 11:07:23;;;;;;;0.33;0.13;;;19.30;1.00;;;;;;5117033;28;20965;-58
2022/05/26 11:09:55;;;;;;;0.50;0.30;;;19.30;1.00;;;;;;5116497;28;20514;-57
2022/05/26 11:12:31;;;;;;;0.30;0.20;;;19.50;1.00;;;;;;5111588;28;20481;-56
2022/05/26 11:17:59;;;;;;;0.40;0.20;;;20.10;1.00;;;;;;5041654;28;20930;-56
2022/05/26 11:20:28;;;;;;;0.40;0.20;;;20.30;1.00;;;;;;5097746;28;20445;-56
2022/05/26 11:23:02;;;;;;;0.40;0.20;;;20.40;1.00;;;;;;5105088;28;20456;-56
2022/05/26 11:25:32;;;;;;;1.23;0.20;;;20.60;1.00;;;;;;5100352;28;20536;-57
2022/05/26 11:28:05;;;;;;;0.40;0.20;;;20.80;1.00;;;;;;5103931;28;20544;-58
2022/05/26 11:36:21;;;;;;;0.40;0.20;;;20.50;1.00;;;;;;5116437;28;20424;-58
2022/05/26 11:38:51;;;;;;;0.40;0.20;;;20.40;1.00;;;;;;5116217;28;20928;-58
2022/05/26 11:41:27;;;;;;;0.30;0.20;;;20.10;1.00;;;;;;5116006;28;20445;-57
2022/05/26 11:44:06;;;;;;;0.40;0.20;;;20.10;1.00;;;;;;5116703;28;20831;-57
2022/05/26 11:46:49;;;;;;;0.50;0.17;;;20.30;1.00;;;;;;5116303;28;20436;-57
2022/05/26 11:49:59;;;;;;;0.30;0.20;;;20.50;1.00;;;;;;5113997;28;20538;-58
2022/05/26 11:52:48;;;;;;;0.40;0.20;;;20.70;1.00;;;;;;5019609;28;20556;-58
2022/05/26 11:55:18;;;;;;;0.30;0.20;;;21.00;1.00;;;;;;5115039;28;20471;-58
2022/05/26 11:57:53;;;;;;;0.30;0.20;;;21.00;1.00;;;;;;5115910;28;20547;-57
2022/05/26 12:00:24;;;;;;;0.50;0.23;;;20.30;1.00;;;;;;5115221;28;20463;-58
2022/05/26 12:02:52;;;;;;;0.40;0.30;;;20.50;1.00;;;;;;5114321;28;20510;-57
2022/05/26 12:05:45;;;;;;;0.50;0.27;;;20.50;1.00;;;;;;5115249;28;21019;-58
2022/05/26 12:08:37;;;;;;;1.57;0.27;;;20.40;1.00;;;;;;5115727;28;20488;-58
2022/05/26 12:11:09;;;;;;;0.83;0.40;;;20.50;1.00;;;;;;5115468;28;20512;-57
2022/05/26 12:13:38;;;;;;;0.57;0.27;;;20.40;1.00;;;;;;5113984;28;20452;-58
2022/05/26 12:16:33;;;;;;;0.50;0.20;;;20.30;1.00;;;;;;5113807;28;20451;-58
2022/05/26 12:19:04;;;;;;;0.63;0.20;;;20.20;1.00;;;;;;5114969;28;20964;-58
2022/05/26 12:21:50;;;;;;;0.40;0.30;;;20.10;1.00;;;;;;5112721;28;20445;-57
2022/05/26 12:24:51;;;;;;;0.60;0.20;;;19.90;1.00;;;;;;5112442;28;20452;-58
2022/05/26 12:27:54;;;;;;;0.40;0.20;;;19.60;1.00;;;;;;5111390;28;20455;-57
2022/05/26 12:30:52;;;;;;;0.50;0.30;;;19.60;1.00;;;;;;5107456;28;20945;-57
2022/05/26 12:33:35;;;;;;;0.57;0.30;;;19.60;1.00;;;;;;5113776;28;20463;-58
2022/05/26 12:36:13;;;;;;;0.50;0.20;;;19.50;1.00;;;;;;5114691;28;20476;-58
2022/05/26 12:38:59;;;;;;;0.40;0.20;;;19.50;1.00;;;;;;5113903;28;20546;-56
2022/05/26 12:41:43;;;;;;;0.40;0.27;;;19.60;1.00;;;;;;5115404;28;20876;-57
2022/05/26 12:44:32;;;;;;;0.43;0.20;;;19.90;1.00;;;;;;5113997;28;20962;-58
2022/05/26 12:47:11;;;;;;;0.50;0.30;;;20.20;1.00;;;;;;5113338;28;20460;-58
2022/05/26 12:50:00;;;;;;;0.50;0.20;;;20.80;1.00;;;;;;5112549;28;20504;-57
2022/05/26 12:52:34;;;;;;;0.50;0.30;;;21.40;1.00;;;;;;5114414;28;21161;-58
2022/05/26 12:55:17;;;;;;;0.50;0.30;;;21.50;1.00;;;;;;5114599;28;20471;-54
2022/05/26 12:57:52;;;;;;;0.30;0.20;;;21.60;1.00;;;;;;5114582;28;20915;-53
2022/05/26 13:00:25;;;;;;;2.27;0.40;;;21.60;1.00;;;;;;5114839;28;20531;-57
2022/05/26 13:02:56;;;;;;;0.40;0.30;;;21.60;1.00;;;;;;5113611;28;20523;-56
2022/05/26 13:05:23;;;;;;;0.40;0.20;;;21.70;1.00;;;;;;5115379;28;20440;-57
2022/05/26 13:07:53;;;;;;;0.50;0.30;;;21.30;1.00;;;;;;5115372;28;20551;-55
2022/05/26 13:10:25;;;;;;;0.40;0.20;;;20.90;1.00;;;;;;5113770;28;20480;-57
2022/05/26 13:12:53;;;;;;;0.50;0.30;;;21.00;1.00;;;;;;5113268;28;20935;-57
2022/05/26 13:15:25;;;;;;;0.40;0.20;;;20.70;1.00;;;;;;5114266;28;20445;-58
2022/05/26 13:17:54;;;;;;;0.60;0.30;;;20.50;1.00;;;;;;5114424;28;20531;-57
2022/05/26 13:20:31;;;;;;;1.27;0.30;;;20.20;1.00;;;;;;5114683;28;20447;-58
2022/05/26 13:22:59;;;;;;;0.50;0.20;;;20.20;1.00;;;;;;5114958;28;20471;-55
2022/05/26 13:25:32;;;;;;;2.20;0.30;;;20.00;1.00;;;;;;5114966;28;20472;-57
2022/05/26 13:28:02;;;;;;;0.40;0.27;;;20.00;1.00;;;;;;5116464;28;20456;-56
2022/05/26 13:33:22;;;;;;;0.70;0.30;;;20.00;1.00;;;;;;5115210;28;20425;-52
2022/05/26 13:35:59;;;;;;;0.40;0.30;;;20.10;1.00;;;;;;5114137;28;20871;-58
2022/05/26 13:38:33;;;;;;;2.43;0.30;;;20.10;1.00;;;;;;5113569;28;20551;-57
2022/05/26 13:41:01;;;;;;;0.50;0.40;;;20.10;1.00;;;;;;5114303;28;20441;-57
2022/05/26 13:43:32;;;;;;;0.40;0.30;;;20.20;1.00;;;;;;5114695;28;20484;-56
2022/05/26 13:46:00;;;;;;;3.07;0.30;;;20.20;1.00;;;;;;5115451;28;20480;-57
2022/05/26 13:48:34;;;;;;;0.50;0.30;;;20.10;1.00;;;;;;5114476;28;20452;-57
2022/05/26 13:51:14;;;;;;;0.50;0.30;;;20.00;1.00;;;;;;5114247;28;20486;-57
2022/05/26 13:53:43;;;;;;;0.90;0.30;;;20.00;1.00;;;;;;5114539;28;20571;-57
2022/05/26 13:56:18;;;;;;;0.70;0.40;;;20.20;1.00;;;;;;5114138;28;20560;-57
2022/05/26 13:58:54;;;;;;;1.30;0.30;;;20.30;1.00;;;;;;5113939;28;20547;-56